sensor_id;sensor_type;location;lat;lon;timestamp;temperature;humidity
46037;DHT22;31769;49.304;8.428;2023-07-22T00:02:39;18.50;99.90
46037;DHT22;31769;49.304;8.428;2023-07-22T00:05:40;18.50;99.90
46037;DHT22;31769;49.304;8.428;2023-07-22T00:08:41;18.50;99.90
46037;DHT22;31769;49.304;8.428;2023-07-22T00:11:42;18.40;99.90
46037;DHT22;31769;49.304;8.428;2023-07-22T00:14:42;18.40;99.90
46037;DHT22;31769;49.304;8.428;2023-07-22T00:17:43;18.40;99.90
46037;DHT22;31769;49.304;8.428;2023-07-22T00:20:44;18.40;99.90
46037;DHT22;31769;49.304;8.428;2023-07-22T00:23:44;18.40;99.90
46037;DHT22;31769;49.304;8.428;2023-07-22T00:26:46;18.40;99.90
46037;DHT22;31769;49.304;8.428;2023-07-22T00:29:47;18.40;99.90
46037;DHT22;31769;49.304;8.428;2023-07-22T00:32:47;18.40;99.90
46037;DHT22;31769;49.304;8.428;2023-07-22T00:35:48;18.30;99.90
46037;DHT22;31769;49.304;8.428;2023-07-22T00:38:51;18.30;99.90
46037;DHT22;31769;49.304;8.428;2023-07-22T00:41:53;18.30;99.90
46037;DHT22;31769;49.304;8.428;2023-07-22T00:44:53;18.30;99.90
46037;DHT22;31769;49.304;8.428;2023-07-22T00:47:54;18.20;99.90
46037;DHT22;31769;49.304;8.428;2023-07-22T00:50:55;18.20;99.90
46037;DHT22;31769;49.304;8.428;2023-07-22T00:53:56;17.90;99.90
46037;DHT22;31769;49.304;8.428;2023-07-22T00:56:57;17.60;99.90
46037;DHT22;31769;49.304;8.428;2023-07-22T00:59:58;17.40;99.90
46037;DHT22;31769;49.304;8.428;2023-07-22T01:02:59;17.40;99.90
46037;DHT22;31769;49.304;8.428;2023-07-22T01:06:00;17.40;99.90
46037;DHT22;31769;49.304;8.428;2023-07-22T01:09:01;17.50;99.90
46037;DHT22;31769;49.304;8.428;2023-07-22T01:12:02;17.60;99.90
46037;DHT22;31769;49.304;8.428;2023-07-22T01:15:03;17.60;99.90
46037;DHT22;31769;49.304;8.428;2023-07-22T01:18:04;17.60;99.90
46037;DHT22;31769;49.304;8.428;2023-07-22T01:21:06;17.70;99.90
46037;DHT22;31769;49.304;8.428;2023-07-22T01:24:07;17.80;99.90
46037;DHT22;31769;49.304;8.428;2023-07-22T01:27:09;17.90;99.90
46037;DHT22;31769;49.304;8.428;2023-07-22T01:30:11;17.90;99.90
46037;DHT22;31769;49.304;8.428;2023-07-22T01:33:11;18.00;99.90
46037;DHT22;31769;49.304;8.428;2023-07-22T01:36:12;18.00;99.90
46037;DHT22;31769;49.304;8.428;2023-07-22T01:39:16;18.00;99.90
46037;DHT22;31769;49.304;8.428;2023-07-22T01:42:18;18.00;99.90
46037;DHT22;31769;49.304;8.428;2023-07-22T01:45:18;18.00;99.90
46037;DHT22;31769;49.304;8.428;2023-07-22T01:48:19;17.80;99.90
46037;DHT22;31769;49.304;8.428;2023-07-22T01:51:19;17.60;99.90
46037;DHT22;31769;49.304;8.428;2023-07-22T01:54:20;17.40;99.90
46037;DHT22;31769;49.304;8.428;2023-07-22T01:57:21;17.40;99.90
46037;DHT22;31769;49.304;8.428;2023-07-22T02:00:21;17.30;99.90
46037;DHT22;31769;49.304;8.428;2023-07-22T02:03:22;17.40;99.90
46037;DHT22;31769;49.304;8.428;2023-07-22T02:06:23;17.50;99.90
46037;DHT22;31769;49.304;8.428;2023-07-22T02:09:24;17.50;99.90
46037;DHT22;31769;49.304;8.428;2023-07-22T02:12:25;17.50;99.90
46037;DHT22;31769;49.304;8.428;2023-07-22T02:15:26;17.50;99.90
46037;DHT22;31769;49.304;8.428;2023-07-22T02:18:26;18.00;99.90
46037;DHT22;31769;49.304;8.428;2023-07-22T02:21:27;18.20;99.90
46037;DHT22;31769;49.304;8.428;2023-07-22T02:24:28;17.50;99.90
46037;DHT22;31769;49.304;8.428;2023-07-22T02:27:29;17.90;99.90
46037;DHT22;31769;49.304;8.428;2023-07-22T02:30:29;17.60;99.90
46037;DHT22;31769;49.304;8.428;2023-07-22T02:33:30;17.80;99.90
46037;DHT22;31769;49.304;8.428;2023-07-22T02:36:31;17.40;99.90
46037;DHT22;31769;49.304;8.428;2023-07-22T02:39:32;17.60;99.90
46037;DHT22;31769;49.304;8.428;2023-07-22T02:42:34;17.50;99.90
46037;DHT22;31769;49.304;8.428;2023-07-22T02:45:36;17.50;99.90
46037;DHT22;31769;49.304;8.428;2023-07-22T02:48:37;17.50;99.90
46037;DHT22;31769;49.304;8.428;2023-07-22T02:51:39;17.40;99.90
46037;DHT22;31769;49.304;8.428;2023-07-22T02:54:40;17.30;99.90
46037;DHT22;31769;49.304;8.428;2023-07-22T02:57:41;17.40;99.90
46037;DHT22;31769;49.304;8.428;2023-07-22T03:00:42;17.40;99.90
46037;DHT22;31769;49.304;8.428;2023-07-22T03:03:43;17.60;99.90
46037;DHT22;31769;49.304;8.428;2023-07-22T03:06:44;17.60;99.90
46037;DHT22;31769;49.304;8.428;2023-07-22T03:09:45;17.60;99.90
46037;DHT22;31769;49.304;8.428;2023-07-22T03:12:46;17.60;99.90
46037;DHT22;31769;49.304;8.428;2023-07-22T03:15:47;17.70;99.90
46037;DHT22;31769;49.304;8.428;2023-07-22T03:18:47;17.70;99.90
46037;DHT22;31769;49.304;8.428;2023-07-22T03:21:48;17.70;99.90
46037;DHT22;31769;49.304;8.428;2023-07-22T03:24:49;17.70;99.90
46037;DHT22;31769;49.304;8.428;2023-07-22T03:27:49;17.90;99.90
46037;DHT22;31769;49.304;8.428;2023-07-22T03:30:50;17.60;99.90
46037;DHT22;31769;49.304;8.428;2023-07-22T03:33:51;17.70;99.90
46037;DHT22;31769;49.304;8.428;2023-07-22T03:36:52;17.70;99.90
46037;DHT22;31769;49.304;8.428;2023-07-22T03:39:53;17.70;99.90
46037;DHT22;31769;49.304;8.428;2023-07-22T03:42:55;17.70;99.90
46037;DHT22;31769;49.304;8.428;2023-07-22T03:45:56;17.70;99.90
46037;DHT22;31769;49.304;8.428;2023-07-22T03:48:57;17.70;99.90
46037;DHT22;31769;49.304;8.428;2023-07-22T03:51:57;17.70;99.90
46037;DHT22;31769;49.304;8.428;2023-07-22T03:54:58;17.80;99.90
46037;DHT22;31769;49.304;8.428;2023-07-22T03:57:59;17.90;99.90
46037;DHT22;31769;49.304;8.428;2023-07-22T04:00:59;17.80;99.90
46037;DHT22;31769;49.304;8.428;2023-07-22T04:04:00;17.80;99.90
46037;DHT22;31769;49.304;8.428;2023-07-22T04:07:01;17.60;99.90
46037;DHT22;31769;49.304;8.428;2023-07-22T04:10:02;18.60;99.90
46037;DHT22;31769;49.304;8.428;2023-07-22T04:13:03;17.40;99.90
46037;DHT22;31769;49.304;8.428;2023-07-22T04:16:03;17.50;99.90
46037;DHT22;31769;49.304;8.428;2023-07-22T04:19:04;17.20;99.90
46037;DHT22;31769;49.304;8.428;2023-07-22T04:22:05;17.00;99.90
46037;DHT22;31769;49.304;8.428;2023-07-22T04:25:07;16.90;99.90
46037;DHT22;31769;49.304;8.428;2023-07-22T04:28:08;16.60;99.90
46037;DHT22;31769;49.304;8.428;2023-07-22T04:31:09;16.50;99.90
46037;DHT22;31769;49.304;8.428;2023-07-22T04:34:10;16.60;99.90
46037;DHT22;31769;49.304;8.428;2023-07-22T04:37:13;16.70;99.90
46037;DHT22;31769;49.304;8.428;2023-07-22T04:40:14;16.80;99.90
46037;DHT22;31769;49.304;8.428;2023-07-22T04:43:15;16.90;99.90
46037;DHT22;31769;49.304;8.428;2023-07-22T04:46:16;17.00;99.90
46037;DHT22;31769;49.304;8.428;2023-07-22T04:49:17;17.10;99.90
46037;DHT22;31769;49.304;8.428;2023-07-22T04:52:18;17.10;99.90
46037;DHT22;31769;49.304;8.428;2023-07-22T04:55:18;16.80;99.90
46037;DHT22;31769;49.304;8.428;2023-07-22T04:58:19;16.50;99.90
46037;DHT22;31769;49.304;8.428;2023-07-22T05:01:20;16.30;99.90
46037;DHT22;31769;49.304;8.428;2023-07-22T05:04:21;16.50;99.90
46037;DHT22;31769;49.304;8.428;2023-07-22T05:07:22;16.60;99.90
46037;DHT22;31769;49.304;8.428;2023-07-22T05:10:23;17.20;99.90
46037;DHT22;31769;49.304;8.428;2023-07-22T05:13:24;16.50;99.90
46037;DHT22;31769;49.304;8.428;2023-07-22T05:16:24;16.30;99.90
46037;DHT22;31769;49.304;8.428;2023-07-22T05:19:25;16.50;99.90
46037;DHT22;31769;49.304;8.428;2023-07-22T05:22:26;16.60;99.90
46037;DHT22;31769;49.304;8.428;2023-07-22T05:25:26;16.70;99.90
46037;DHT22;31769;49.304;8.428;2023-07-22T05:28:27;17.10;99.90
46037;DHT22;31769;49.304;8.428;2023-07-22T05:31:28;16.80;99.90
46037;DHT22;31769;49.304;8.428;2023-07-22T05:34:28;16.80;99.90
46037;DHT22;31769;49.304;8.428;2023-07-22T05:37:29;16.80;99.90
46037;DHT22;31769;49.304;8.428;2023-07-22T05:40:30;16.90;99.90
46037;DHT22;31769;49.304;8.428;2023-07-22T05:43:30;17.00;99.90
46037;DHT22;31769;49.304;8.428;2023-07-22T05:46:31;17.20;99.90
46037;DHT22;31769;49.304;8.428;2023-07-22T05:49:32;17.30;99.90
46037;DHT22;31769;49.304;8.428;2023-07-22T05:52:32;17.30;99.90
46037;DHT22;31769;49.304;8.428;2023-07-22T05:55:33;17.30;99.90
46037;DHT22;31769;49.304;8.428;2023-07-22T05:58:34;17.50;99.90
46037;DHT22;31769;49.304;8.428;2023-07-22T06:01:35;17.60;99.90
46037;DHT22;31769;49.304;8.428;2023-07-22T06:04:36;17.90;99.90
46037;DHT22;31769;49.304;8.428;2023-07-22T06:07:36;18.10;99.90
46037;DHT22;31769;49.304;8.428;2023-07-22T06:10:37;18.10;99.90
46037;DHT22;31769;49.304;8.428;2023-07-22T06:13:38;18.10;99.90
46037;DHT22;31769;49.304;8.428;2023-07-22T06:16:39;18.30;99.90
46037;DHT22;31769;49.304;8.428;2023-07-22T06:19:39;18.20;99.90
46037;DHT22;31769;49.304;8.428;2023-07-22T06:22:40;18.00;99.90
46037;DHT22;31769;49.304;8.428;2023-07-22T06:25:40;17.90;99.90
46037;DHT22;31769;49.304;8.428;2023-07-22T06:28:41;17.60;99.90
46037;DHT22;31769;49.304;8.428;2023-07-22T06:31:42;17.50;99.90
46037;DHT22;31769;49.304;8.428;2023-07-22T06:34:43;17.40;99.90
46037;DHT22;31769;49.304;8.428;2023-07-22T06:37:43;17.40;99.90
46037;DHT22;31769;49.304;8.428;2023-07-22T06:40:44;17.40;99.90
46037;DHT22;31769;49.304;8.428;2023-07-22T06:43:45;17.70;99.90
46037;DHT22;31769;49.304;8.428;2023-07-22T06:46:45;17.90;99.90
46037;DHT22;31769;49.304;8.428;2023-07-22T06:49:46;17.80;99.90
46037;DHT22;31769;49.304;8.428;2023-07-22T06:52:47;17.70;99.90
46037;DHT22;31769;49.304;8.428;2023-07-22T06:55:49;17.90;99.90
46037;DHT22;31769;49.304;8.428;2023-07-22T06:58:50;17.80;99.90
46037;DHT22;31769;49.304;8.428;2023-07-22T07:01:52;17.90;99.90
46037;DHT22;31769;49.304;8.428;2023-07-22T07:04:52;18.10;99.90
46037;DHT22;31769;49.304;8.428;2023-07-22T07:07:53;18.30;99.90
46037;DHT22;31769;49.304;8.428;2023-07-22T07:10:53;18.40;99.90
46037;DHT22;31769;49.304;8.428;2023-07-22T07:13:54;18.50;99.90
46037;DHT22;31769;49.304;8.428;2023-07-22T07:16:55;18.70;99.90
46037;DHT22;31769;49.304;8.428;2023-07-22T07:19:56;18.60;99.90
46037;DHT22;31769;49.304;8.428;2023-07-22T07:22:56;18.50;99.90
46037;DHT22;31769;49.304;8.428;2023-07-22T07:25:57;18.60;99.90
46037;DHT22;31769;49.304;8.428;2023-07-22T07:28:58;18.70;99.90
46037;DHT22;31769;49.304;8.428;2023-07-22T07:31:58;19.00;99.90
46037;DHT22;31769;49.304;8.428;2023-07-22T07:34:59;19.30;99.90
46037;DHT22;31769;49.304;8.428;2023-07-22T07:37:59;19.50;99.90
46037;DHT22;31769;49.304;8.428;2023-07-22T07:41:02;19.90;99.90
46037;DHT22;31769;49.304;8.428;2023-07-22T07:44:04;19.70;99.90
46037;DHT22;31769;49.304;8.428;2023-07-22T07:47:04;19.90;99.90
46037;DHT22;31769;49.304;8.428;2023-07-22T07:50:06;20.30;99.90
46037;DHT22;31769;49.304;8.428;2023-07-22T07:53:07;20.20;99.90
46037;DHT22;31769;49.304;8.428;2023-07-22T07:56:08;19.80;99.90
46037;DHT22;31769;49.304;8.428;2023-07-22T07:59:09;19.70;99.90
46037;DHT22;31769;49.304;8.428;2023-07-22T08:02:10;19.80;99.90
46037;DHT22;31769;49.304;8.428;2023-07-22T08:05:10;20.10;99.90
46037;DHT22;31769;49.304;8.428;2023-07-22T08:08:12;20.00;99.90
46037;DHT22;31769;49.304;8.428;2023-07-22T08:11:14;20.00;99.90
46037;DHT22;31769;49.304;8.428;2023-07-22T08:14:14;20.00;99.90
46037;DHT22;31769;49.304;8.428;2023-07-22T08:17:15;20.20;99.90
46037;DHT22;31769;49.304;8.428;2023-07-22T08:20:16;20.10;99.90
46037;DHT22;31769;49.304;8.428;2023-07-22T08:23:16;20.10;99.90
46037;DHT22;31769;49.304;8.428;2023-07-22T08:26:17;20.30;99.90
46037;DHT22;31769;49.304;8.428;2023-07-22T08:29:22;20.50;99.90
46037;DHT22;31769;49.304;8.428;2023-07-22T08:32:22;20.80;99.90
46037;DHT22;31769;49.304;8.428;2023-07-22T08:35:23;20.40;99.90
46037;DHT22;31769;49.304;8.428;2023-07-22T08:38:24;20.50;99.90
46037;DHT22;31769;49.304;8.428;2023-07-22T08:41:25;20.50;99.90
46037;DHT22;31769;49.304;8.428;2023-07-22T08:44:28;20.70;99.90
46037;DHT22;31769;49.304;8.428;2023-07-22T08:47:35;21.10;99.90
46037;DHT22;31769;49.304;8.428;2023-07-22T08:53:54;20.80;99.90
46037;DHT22;31769;49.304;8.428;2023-07-22T08:56:57;21.10;99.90
46037;DHT22;31769;49.304;8.428;2023-07-22T08:59:58;21.30;99.90
46037;DHT22;31769;49.304;8.428;2023-07-22T09:02:59;21.70;99.90
46037;DHT22;31769;49.304;8.428;2023-07-22T09:06:00;21.90;99.90
46037;DHT22;31769;49.304;8.428;2023-07-22T09:09:03;22.20;99.90
46037;DHT22;31769;49.304;8.428;2023-07-22T09:12:08;22.50;99.90
46037;DHT22;31769;49.304;8.428;2023-07-22T09:15:12;22.50;99.90
46037;DHT22;31769;49.304;8.428;2023-07-22T09:18:13;22.60;99.90
46037;DHT22;31769;49.304;8.428;2023-07-22T09:21:15;22.80;99.90
46037;DHT22;31769;49.304;8.428;2023-07-22T09:24:21;22.60;99.90
46037;DHT22;31769;49.304;8.428;2023-07-22T09:27:34;22.50;99.90
46037;DHT22;31769;49.304;8.428;2023-07-22T09:30:36;22.80;99.90
46037;DHT22;31769;49.304;8.428;2023-07-22T09:33:38;22.80;99.90
46037;DHT22;31769;49.304;8.428;2023-07-22T09:36:56;22.80;99.90
46037;DHT22;31769;49.304;8.428;2023-07-22T09:39:57;22.90;99.90
46037;DHT22;31769;49.304;8.428;2023-07-22T09:43:01;23.00;99.90
46037;DHT22;31769;49.304;8.428;2023-07-22T09:46:10;23.40;99.90
46037;DHT22;31769;49.304;8.428;2023-07-22T09:49:12;23.30;99.90
46037;DHT22;31769;49.304;8.428;2023-07-22T09:52:12;23.60;99.90
46037;DHT22;31769;49.304;8.428;2023-07-22T09:55:19;23.90;99.90
46037;DHT22;31769;49.304;8.428;2023-07-22T09:58:20;23.90;99.90
46037;DHT22;31769;49.304;8.428;2023-07-22T10:01:24;23.90;99.90
46037;DHT22;31769;49.304;8.428;2023-07-22T10:04:27;24.20;99.90
46037;DHT22;31769;49.304;8.428;2023-07-22T10:07:29;24.20;99.90
46037;DHT22;31769;49.304;8.428;2023-07-22T10:10:34;24.20;99.30
46037;DHT22;31769;49.304;8.428;2023-07-22T10:13:35;24.40;99.60
46037;DHT22;31769;49.304;8.428;2023-07-22T10:16:36;24.50;98.40
46037;DHT22;31769;49.304;8.428;2023-07-22T10:19:37;24.60;96.20
46037;DHT22;31769;49.304;8.428;2023-07-22T10:22:38;24.90;95.40
46037;DHT22;31769;49.304;8.428;2023-07-22T10:25:40;25.00;95.00
46037;DHT22;31769;49.304;8.428;2023-07-22T10:28:41;24.80;93.70
46037;DHT22;31769;49.304;8.428;2023-07-22T10:31:43;24.40;93.70
46037;DHT22;31769;49.304;8.428;2023-07-22T10:34:44;24.40;94.00
46037;DHT22;31769;49.304;8.428;2023-07-22T10:37:45;24.40;93.90
46037;DHT22;31769;49.304;8.428;2023-07-22T10:40:51;24.30;94.20
46037;DHT22;31769;49.304;8.428;2023-07-22T10:43:56;23.90;95.20
46037;DHT22;31769;49.304;8.428;2023-07-22T10:46:58;23.70;96.10
46037;DHT22;31769;49.304;8.428;2023-07-22T10:50:06;23.70;96.20
46037;DHT22;31769;49.304;8.428;2023-07-22T10:53:12;23.70;95.20
46037;DHT22;31769;49.304;8.428;2023-07-22T10:56:21;23.70;94.90
46037;DHT22;31769;49.304;8.428;2023-07-22T10:59:27;23.60;95.40
46037;DHT22;31769;49.304;8.428;2023-07-22T11:02:29;23.50;95.50
46037;DHT22;31769;49.304;8.428;2023-07-22T11:05:50;23.70;96.20
46037;DHT22;31769;49.304;8.428;2023-07-22T11:08:52;24.00;95.90
46037;DHT22;31769;49.304;8.428;2023-07-22T11:15:11;24.90;95.30
46037;DHT22;31769;49.304;8.428;2023-07-22T11:18:14;25.50;93.40
46037;DHT22;31769;49.304;8.428;2023-07-22T11:21:15;25.70;93.00
46037;DHT22;31769;49.304;8.428;2023-07-22T11:24:17;25.40;92.70
46037;DHT22;31769;49.304;8.428;2023-07-22T11:27:17;25.20;92.30
46037;DHT22;31769;49.304;8.428;2023-07-22T11:30:18;25.10;92.10
46037;DHT22;31769;49.304;8.428;2023-07-22T11:33:19;25.20;91.40
46037;DHT22;31769;49.304;8.428;2023-07-22T11:36:19;25.40;90.90
46037;DHT22;31769;49.304;8.428;2023-07-22T11:39:21;25.50;88.90
46037;DHT22;31769;49.304;8.428;2023-07-22T11:42:23;25.60;90.00
46037;DHT22;31769;49.304;8.428;2023-07-22T11:45:24;26.20;85.60
46037;DHT22;31769;49.304;8.428;2023-07-22T11:48:25;26.50;85.10
46037;DHT22;31769;49.304;8.428;2023-07-22T11:51:26;26.10;85.10
46037;DHT22;31769;49.304;8.428;2023-07-22T11:54:28;25.90;86.00
46037;DHT22;31769;49.304;8.428;2023-07-22T11:57:29;25.70;85.20
46037;DHT22;31769;49.304;8.428;2023-07-22T12:00:30;25.90;84.90
46037;DHT22;31769;49.304;8.428;2023-07-22T12:03:34;25.70;86.60
46037;DHT22;31769;49.304;8.428;2023-07-22T12:06:35;26.00;85.20
46037;DHT22;31769;49.304;8.428;2023-07-22T12:09:35;26.40;84.10
46037;DHT22;31769;49.304;8.428;2023-07-22T12:12:43;26.50;81.10
46037;DHT22;31769;49.304;8.428;2023-07-22T12:15:59;26.30;81.90
46037;DHT22;31769;49.304;8.428;2023-07-22T12:19:01;25.80;82.60
46037;DHT22;31769;49.304;8.428;2023-07-22T12:22:03;26.00;82.90
46037;DHT22;31769;49.304;8.428;2023-07-22T12:25:04;26.20;80.60
46037;DHT22;31769;49.304;8.428;2023-07-22T12:28:05;26.40;80.00
46037;DHT22;31769;49.304;8.428;2023-07-22T12:31:07;26.40;79.00
46037;DHT22;31769;49.304;8.428;2023-07-22T12:34:08;26.80;77.10
46037;DHT22;31769;49.304;8.428;2023-07-22T12:37:09;27.40;76.10
46037;DHT22;31769;49.304;8.428;2023-07-22T12:40:10;27.60;73.60
46037;DHT22;31769;49.304;8.428;2023-07-22T12:43:12;27.30;73.30
46037;DHT22;31769;49.304;8.428;2023-07-22T12:46:13;27.30;73.50
46037;DHT22;31769;49.304;8.428;2023-07-22T12:49:13;28.10;71.60
46037;DHT22;31769;49.304;8.428;2023-07-22T12:52:14;29.20;70.60
46037;DHT22;31769;49.304;8.428;2023-07-22T12:55:14;29.80;67.80
46037;DHT22;31769;49.304;8.428;2023-07-22T12:58:15;29.70;66.80
46037;DHT22;31769;49.304;8.428;2023-07-22T13:01:16;29.50;65.30
46037;DHT22;31769;49.304;8.428;2023-07-22T13:04:17;28.90;64.10
46037;DHT22;31769;49.304;8.428;2023-07-22T13:07:17;28.70;64.60
46037;DHT22;31769;49.304;8.428;2023-07-22T13:10:18;29.50;63.00
46037;DHT22;31769;49.304;8.428;2023-07-22T13:13:20;30.40;60.50
46037;DHT22;31769;49.304;8.428;2023-07-22T13:16:21;30.80;59.10
46037;DHT22;31769;49.304;8.428;2023-07-22T13:19:29;30.10;58.60
46037;DHT22;31769;49.304;8.428;2023-07-22T13:22:30;29.70;59.30
46037;DHT22;31769;49.304;8.428;2023-07-22T13:25:30;31.70;57.10
46037;DHT22;31769;49.304;8.428;2023-07-22T13:28:31;32.70;54.80
46037;DHT22;31769;49.304;8.428;2023-07-22T13:31:32;33.00;53.50
46037;DHT22;31769;49.304;8.428;2023-07-22T13:34:32;30.40;56.80
46037;DHT22;31769;49.304;8.428;2023-07-22T13:37:33;30.30;56.90
46037;DHT22;31769;49.304;8.428;2023-07-22T13:40:34;30.60;57.00
46037;DHT22;31769;49.304;8.428;2023-07-22T13:43:35;30.70;56.60
46037;DHT22;31769;49.304;8.428;2023-07-22T13:46:35;30.60;56.00
46037;DHT22;31769;49.304;8.428;2023-07-22T13:49:36;31.10;55.80
46037;DHT22;31769;49.304;8.428;2023-07-22T13:52:36;32.80;52.20
46037;DHT22;31769;49.304;8.428;2023-07-22T13:55:37;33.80;51.00
46037;DHT22;31769;49.304;8.428;2023-07-22T13:58:38;34.00;49.50
46037;DHT22;31769;49.304;8.428;2023-07-22T14:01:38;32.60;51.00
46037;DHT22;31769;49.304;8.428;2023-07-22T14:04:39;32.10;51.90
46037;DHT22;31769;49.304;8.428;2023-07-22T14:07:40;31.30;53.10
46037;DHT22;31769;49.304;8.428;2023-07-22T14:10:41;31.30;52.20
46037;DHT22;31769;49.304;8.428;2023-07-22T14:13:41;32.30;51.40
46037;DHT22;31769;49.304;8.428;2023-07-22T14:16:42;33.20;50.20
46037;DHT22;31769;49.304;8.428;2023-07-22T14:19:42;34.50;49.30
46037;DHT22;31769;49.304;8.428;2023-07-22T14:22:43;34.80;48.40
46037;DHT22;31769;49.304;8.428;2023-07-22T14:25:44;33.90;48.90
46037;DHT22;31769;49.304;8.428;2023-07-22T14:28:44;33.70;48.80
46037;DHT22;31769;49.304;8.428;2023-07-22T14:31:45;35.10;48.10
46037;DHT22;31769;49.304;8.428;2023-07-22T14:34:46;34.70;47.60
46037;DHT22;31769;49.304;8.428;2023-07-22T14:37:46;34.30;47.70
46037;DHT22;31769;49.304;8.428;2023-07-22T14:40:47;34.40;48.00
46037;DHT22;31769;49.304;8.428;2023-07-22T14:43:48;33.50;48.50
46037;DHT22;31769;49.304;8.428;2023-07-22T14:46:48;32.60;49.50
46037;DHT22;31769;49.304;8.428;2023-07-22T14:49:49;33.00;49.50
46037;DHT22;31769;49.304;8.428;2023-07-22T14:52:50;34.80;47.80
46037;DHT22;31769;49.304;8.428;2023-07-22T14:55:50;35.40;47.40
46037;DHT22;31769;49.304;8.428;2023-07-22T14:58:51;35.40;47.00
46037;DHT22;31769;49.304;8.428;2023-07-22T15:01:52;33.60;47.80
46037;DHT22;31769;49.304;8.428;2023-07-22T15:04:53;31.60;50.30
46037;DHT22;31769;49.304;8.428;2023-07-22T15:07:53;31.80;50.40
46037;DHT22;31769;49.304;8.428;2023-07-22T15:10:54;33.00;48.80
46037;DHT22;31769;49.304;8.428;2023-07-22T15:13:55;32.90;48.80
46037;DHT22;31769;49.304;8.428;2023-07-22T15:16:55;32.50;49.00
46037;DHT22;31769;49.304;8.428;2023-07-22T15:19:56;31.80;50.30
46037;DHT22;31769;49.304;8.428;2023-07-22T15:22:57;33.20;48.40
46037;DHT22;31769;49.304;8.428;2023-07-22T15:25:58;34.70;47.30
46037;DHT22;31769;49.304;8.428;2023-07-22T15:28:58;34.10;47.20
46037;DHT22;31769;49.304;8.428;2023-07-22T15:31:59;34.60;47.00
46037;DHT22;31769;49.304;8.428;2023-07-22T15:34:59;34.40;46.40
46037;DHT22;31769;49.304;8.428;2023-07-22T15:38:00;33.90;47.70
46037;DHT22;31769;49.304;8.428;2023-07-22T15:41:01;34.10;47.00
46037;DHT22;31769;49.304;8.428;2023-07-22T15:44:02;35.30;46.20
46037;DHT22;31769;49.304;8.428;2023-07-22T15:47:03;35.30;45.70
46037;DHT22;31769;49.304;8.428;2023-07-22T15:50:04;33.30;47.50
46037;DHT22;31769;49.304;8.428;2023-07-22T15:53:05;31.90;49.50
46037;DHT22;31769;49.304;8.428;2023-07-22T15:56:06;32.60;48.90
46037;DHT22;31769;49.304;8.428;2023-07-22T15:59:07;33.50;48.50
46037;DHT22;31769;49.304;8.428;2023-07-22T16:02:07;35.00;46.80
46037;DHT22;31769;49.304;8.428;2023-07-22T16:05:08;34.30;46.30
46037;DHT22;31769;49.304;8.428;2023-07-22T16:08:09;33.00;48.00
46037;DHT22;31769;49.304;8.428;2023-07-22T16:11:10;33.30;47.20
46037;DHT22;31769;49.304;8.428;2023-07-22T16:14:10;32.70;47.80
46037;DHT22;31769;49.304;8.428;2023-07-22T16:17:11;31.60;49.10
46037;DHT22;31769;49.304;8.428;2023-07-22T16:20:12;31.40;49.80
46037;DHT22;31769;49.304;8.428;2023-07-22T16:23:13;32.20;48.90
46037;DHT22;31769;49.304;8.428;2023-07-22T16:26:14;32.20;49.10
46037;DHT22;31769;49.304;8.428;2023-07-22T16:29:15;32.70;48.40
46037;DHT22;31769;49.304;8.428;2023-07-22T16:32:15;32.40;48.00
46037;DHT22;31769;49.304;8.428;2023-07-22T16:35:16;31.60;49.40
46037;DHT22;31769;49.304;8.428;2023-07-22T16:38:16;31.30;50.20
46037;DHT22;31769;49.304;8.428;2023-07-22T16:41:17;31.90;49.60
46037;DHT22;31769;49.304;8.428;2023-07-22T16:44:18;32.30;49.10
46037;DHT22;31769;49.304;8.428;2023-07-22T16:47:18;31.80;48.30
46037;DHT22;31769;49.304;8.428;2023-07-22T16:50:19;30.20;50.40
46037;DHT22;31769;49.304;8.428;2023-07-22T16:53:20;29.20;51.50
46037;DHT22;31769;49.304;8.428;2023-07-22T16:56:20;28.60;52.70
46037;DHT22;31769;49.304;8.428;2023-07-22T16:59:21;28.40;53.40
46037;DHT22;31769;49.304;8.428;2023-07-22T17:02:22;29.20;51.70
46037;DHT22;31769;49.304;8.428;2023-07-22T17:05:22;28.80;52.20
46037;DHT22;31769;49.304;8.428;2023-07-22T17:08:23;28.70;52.60
46037;DHT22;31769;49.304;8.428;2023-07-22T17:11:25;28.60;52.90
46037;DHT22;31769;49.304;8.428;2023-07-22T17:14:25;29.30;52.00
46037;DHT22;31769;49.304;8.428;2023-07-22T17:17:26;29.30;52.30
46037;DHT22;31769;49.304;8.428;2023-07-22T17:20:27;29.00;52.30
46037;DHT22;31769;49.304;8.428;2023-07-22T17:23:27;28.60;53.10
46037;DHT22;31769;49.304;8.428;2023-07-22T17:26:28;28.40;53.50
46037;DHT22;31769;49.304;8.428;2023-07-22T17:29:28;28.20;53.10
46037;DHT22;31769;49.304;8.428;2023-07-22T17:32:29;28.10;53.70
46037;DHT22;31769;49.304;8.428;2023-07-22T17:35:30;28.20;53.70
46037;DHT22;31769;49.304;8.428;2023-07-22T17:38:30;28.00;54.00
46037;DHT22;31769;49.304;8.428;2023-07-22T17:41:31;28.00;54.50
46037;DHT22;31769;49.304;8.428;2023-07-22T17:44:32;28.00;53.90
46037;DHT22;31769;49.304;8.428;2023-07-22T17:47:32;27.90;53.90
46037;DHT22;31769;49.304;8.428;2023-07-22T17:50:33;27.80;54.10
46037;DHT22;31769;49.304;8.428;2023-07-22T17:53:33;27.60;54.10
46037;DHT22;31769;49.304;8.428;2023-07-22T17:56:34;27.60;54.30
46037;DHT22;31769;49.304;8.428;2023-07-22T17:59:36;27.60;54.60
46037;DHT22;31769;49.304;8.428;2023-07-22T18:02:36;27.30;54.80
46037;DHT22;31769;49.304;8.428;2023-07-22T18:05:44;27.20;55.30
46037;DHT22;31769;49.304;8.428;2023-07-22T18:08:45;27.20;56.10
46037;DHT22;31769;49.304;8.428;2023-07-22T18:11:45;27.00;56.10
46037;DHT22;31769;49.304;8.428;2023-07-22T18:14:47;27.00;56.20
46037;DHT22;31769;49.304;8.428;2023-07-22T18:17:48;26.80;56.70
46037;DHT22;31769;49.304;8.428;2023-07-22T18:20:49;26.90;56.70
46037;DHT22;31769;49.304;8.428;2023-07-22T18:23:49;26.90;56.90
46037;DHT22;31769;49.304;8.428;2023-07-22T18:26:50;26.90;57.00
46037;DHT22;31769;49.304;8.428;2023-07-22T18:29:50;26.80;57.40
46037;DHT22;31769;49.304;8.428;2023-07-22T18:32:51;26.60;57.80
46037;DHT22;31769;49.304;8.428;2023-07-22T18:35:52;26.40;58.00
46037;DHT22;31769;49.304;8.428;2023-07-22T18:38:53;26.30;58.40
46037;DHT22;31769;49.304;8.428;2023-07-22T18:41:53;26.00;58.50
46037;DHT22;31769;49.304;8.428;2023-07-22T18:44:57;25.90;59.20
46037;DHT22;31769;49.304;8.428;2023-07-22T18:47:58;25.70;59.80
46037;DHT22;31769;49.304;8.428;2023-07-22T18:50:58;25.50;60.40
46037;DHT22;31769;49.304;8.428;2023-07-22T18:54:00;25.40;60.80
46037;DHT22;31769;49.304;8.428;2023-07-22T18:57:01;25.10;61.00
46037;DHT22;31769;49.304;8.428;2023-07-22T19:00:02;25.00;61.90
46037;DHT22;31769;49.304;8.428;2023-07-22T19:03:04;24.90;62.20
46037;DHT22;31769;49.304;8.428;2023-07-22T19:06:05;24.70;62.80
46037;DHT22;31769;49.304;8.428;2023-07-22T19:09:05;24.70;63.50
46037;DHT22;31769;49.304;8.428;2023-07-22T19:12:06;24.40;63.90